createdAt,value
2023-02-17T00:02:00.164Z,17.65
2023-02-17T00:04:04.496Z,17.42
2023-02-17T00:06:09.904Z,23.33
2023-02-17T00:08:13.885Z,18.23
2023-02-17T00:10:18.270Z,9.80
2023-02-17T00:12:22.537Z,19.20
2023-02-17T00:14:26.805Z,14.18
2023-02-17T00:16:31.226Z,15.02
2023-02-17T00:18:32.690Z,19.33
2023-02-17T00:20:37.132Z,17.30
2023-02-17T00:22:57.419Z,20.33
2023-02-17T00:25:17.492Z,14.75
2023-02-17T00:27:21.577Z,17.60
2023-02-17T00:29:26.216Z,17.83
2023-02-17T00:31:30.729Z,15.68
2023-02-17T00:33:35.247Z,17.98
2023-02-17T00:35:39.170Z,21.50
2023-02-17T00:37:40.685Z,15.57
2023-02-17T00:39:44.926Z,17.92
2023-02-17T00:42:05.172Z,18.55
2023-02-17T00:44:25.114Z,17.05
2023-02-17T00:46:26.896Z,17.55
2023-02-17T00:48:47.804Z,19.67
2023-02-17T00:51:08.157Z,15.40
2023-02-17T00:53:09.772Z,20.92
2023-02-17T00:55:11.163Z,17.80
2023-02-17T00:57:12.734Z,21.90
2023-02-17T00:59:14.254Z,15.57
2023-02-17T01:01:18.418Z,20.20
2023-02-17T01:03:19.916Z,13.48
2023-02-17T01:05:21.411Z,17.73
2023-02-17T01:07:22.912Z,18.48
2023-02-17T01:09:27.381Z,21.08
2023-02-17T01:11:31.354Z,20.95
2023-02-17T01:13:35.638Z,16.10
2023-02-17T01:15:40.863Z,19.45
2023-02-17T01:17:45.408Z,19.33
2023-02-17T01:19:49.717Z,19.00
2023-02-17T01:21:51.231Z,18.88
2023-02-17T01:23:53.693Z,19.38
2023-02-17T01:25:55.178Z,19.80
2023-02-17T01:27:59.815Z,18.77
2023-02-17T01:30:01.512Z,21.85
2023-02-17T01:32:03.144Z,17.25
2023-02-17T01:34:05.032Z,19.75
2023-02-17T01:36:07.488Z,22.13
2023-02-17T01:38:12.340Z,20.48
2023-02-17T01:40:14.595Z,18.15
2023-02-17T01:42:16.956Z,20.77
2023-02-17T01:44:18.535Z,21.10
2023-02-17T01:46:20.054Z,21.38
2023-02-17T01:48:27.440Z,18.02
2023-02-17T01:50:33.326Z,22.70
2023-02-17T01:52:39.410Z,18.45
2023-02-17T01:55:05.363Z,19.52
2023-02-17T01:57:07.108Z,20.55
2023-02-17T01:59:12.631Z,14.98
2023-02-17T02:01:32.948Z,14.07
2023-02-17T02:03:36.911Z,19.60
2023-02-17T02:05:39.826Z,20.95
2023-02-17T02:07:45.786Z,17.80
2023-02-17T02:09:50.624Z,17.80
2023-02-17T02:12:01.371Z,17.90
2023-02-17T02:14:10.613Z,14.27
2023-02-17T02:16:17.135Z,15.90
2023-02-17T02:18:29.794Z,9.45
2023-02-17T02:20:50.286Z,11.15
2023-02-17T02:23:17.752Z,12.18
2023-02-17T02:25:25.769Z,11.93
2023-02-17T02:27:27.390Z,11.35
2023-02-17T02:29:28.936Z,11.63
2023-02-17T02:31:41.125Z,8.30
2023-02-17T02:33:43.126Z,10.43
2023-02-17T02:36:10.675Z,14.05
2023-02-17T02:38:12.754Z,11.05
2023-02-17T02:40:19.976Z,7.38
2023-02-17T02:42:26.796Z,7.15
2023-02-17T02:44:31.679Z,12.18
2023-02-17T02:47:06.423Z,9.27
2023-02-17T02:49:09.701Z,8.30
2023-02-17T02:51:16.047Z,6.72
2023-02-17T02:53:20.680Z,10.90
2023-02-17T02:55:28.347Z,9.43
2023-02-17T02:58:11.253Z,7.95
2023-02-17T03:00:20.637Z,14.88
2023-02-17T03:04:44.551Z,8.77
2023-02-17T03:07:01.811Z,7.50
2023-02-17T03:09:06.704Z,8.77
2023-02-17T03:11:08.164Z,6.30
2023-02-17T03:13:12.211Z,7.53
2023-02-17T03:17:17.817Z,7.43
2023-02-17T03:21:23.804Z,13.20
2023-02-17T03:23:28.091Z,9.55
2023-02-17T03:25:29.558Z,7.07
2023-02-17T03:27:31.047Z,7.45
2023-02-17T03:29:32.616Z,8.63
2023-02-17T03:31:34.435Z,9.93
2023-02-17T03:33:35.950Z,10.50
2023-02-17T03:35:40.029Z,6.28
2023-02-17T03:37:44.366Z,7.72
2023-02-17T03:39:45.820Z,14.45
2023-02-17T03:41:50.505Z,7.90
2023-02-17T03:43:54.671Z,7.28
2023-02-17T03:45:56.538Z,8.70
2023-02-17T03:48:00.487Z,10.05
2023-02-17T03:50:20.616Z,7.50
2023-02-17T03:52:22.092Z,8.40
2023-02-17T03:56:27.732Z,7.30
2023-02-17T03:58:29.186Z,10.45
2023-02-17T04:00:49.243Z,8.10
2023-02-17T04:02:53.318Z,7.07
2023-02-17T04:04:54.798Z,7.63
2023-02-17T04:06:59.071Z,5.20
2023-02-17T04:09:03.346Z,6.80
2023-02-17T04:11:08.413Z,7.95
2023-02-17T04:13:10.077Z,11.73
2023-02-17T04:15:14.626Z,11.18
2023-02-17T04:17:18.774Z,8.23
2023-02-17T04:19:21.293Z,14.00
2023-02-17T04:21:25.692Z,8.57
2023-02-17T04:23:27.215Z,8.57
2023-02-17T04:25:33.496Z,8.20
2023-02-17T04:27:37.827Z,8.90
2023-02-17T04:29:42.169Z,10.57
2023-02-17T04:31:46.728Z,8.35
2023-02-17T04:33:50.896Z,6.30
2023-02-17T04:35:59.317Z,7.32
2023-02-17T04:38:03.645Z,12.75
2023-02-17T04:40:10.559Z,5.13
2023-02-17T04:42:14.748Z,6.32
2023-02-17T04:44:16.345Z,8.63
2023-02-17T04:48:21.989Z,6.22
2023-02-17T04:50:23.590Z,7.65
2023-02-17T04:52:28.036Z,7.45
2023-02-17T04:54:32.369Z,8.57
2023-02-17T04:56:33.901Z,8.50
2023-02-17T04:58:37.595Z,5.63
2023-02-17T05:00:41.418Z,11.60
2023-02-17T05:02:48.612Z,12.20
2023-02-17T05:04:52.732Z,7.50
2023-02-17T05:06:56.286Z,7.18
2023-02-17T05:08:59.291Z,6.97
2023-02-17T05:11:01.437Z,6.78
2023-02-17T05:13:05.118Z,6.82
2023-02-17T05:15:11.882Z,8.85
2023-02-17T05:19:20.825Z,6.45
2023-02-17T05:21:22.684Z,5.90
2023-02-17T05:23:25.423Z,9.15
2023-02-17T05:25:28.938Z,9.93
2023-02-17T05:27:35.387Z,8.95
2023-02-17T05:29:38.776Z,4.10
2023-02-17T05:31:43.506Z,4.47
2023-02-17T05:34:03.913Z,8.48
2023-02-17T05:36:11.293Z,4.30
2023-02-17T05:38:12.726Z,3.70
2023-02-17T05:40:17.079Z,2.35
2023-02-17T05:42:18.537Z,4.68
2023-02-17T05:44:38.657Z,6.50
2023-02-17T05:46:40.256Z,1.90
2023-02-17T05:48:41.773Z,5.35
2023-02-17T05:50:43.546Z,1.60
2023-02-17T05:52:47.679Z,4.28
2023-02-17T05:54:49.121Z,2.05
2023-02-17T05:56:50.568Z,7.45
2023-02-17T05:58:52.237Z,5.13
2023-02-17T06:00:53.708Z,1.00
2023-02-17T06:04:59.328Z,2.08
2023-02-17T06:07:00.794Z,2.63
2023-02-17T06:09:02.492Z,5.93
2023-02-17T06:11:22.740Z,7.78
2023-02-17T06:13:24.177Z,4.50
2023-02-17T06:17:32.828Z,0.65
2023-02-17T06:19:34.262Z,3.50
2023-02-17T06:21:36.345Z,3.28
2023-02-17T06:23:37.891Z,2.33
2023-02-17T06:25:42.308Z,5.45
2023-02-17T06:27:46.701Z,3.92
2023-02-17T06:31:52.574Z,3.70
2023-02-17T06:33:54.188Z,1.45
2023-02-17T06:35:55.879Z,2.13
2023-02-17T06:37:57.344Z,1.55
2023-02-17T06:39:58.924Z,2.03
2023-02-17T06:42:00.439Z,1.05
2023-02-17T06:44:01.925Z,3.95
2023-02-17T06:46:03.640Z,3.50
2023-02-17T06:48:07.919Z,2.78
2023-02-17T06:50:12.361Z,4.88
2023-02-17T06:54:18.065Z,2.88
2023-02-17T06:56:22.650Z,4.13
2023-02-17T07:00:31.290Z,0.77
2023-02-17T07:02:39.248Z,3.00
2023-02-17T07:04:44.162Z,1.50
2023-02-17T07:06:48.333Z,2.55
2023-02-17T07:08:50.167Z,1.88
2023-02-17T07:10:54.726Z,4.53
2023-02-17T07:12:56.293Z,1.45
2023-02-17T07:17:04.642Z,4.30
2023-02-17T07:19:08.902Z,2.05
2023-02-17T07:23:17.742Z,2.58
2023-02-17T07:25:21.883Z,2.17
2023-02-17T07:27:26.368Z,1.90
2023-02-17T07:29:28.043Z,5.50
2023-02-17T07:31:32.702Z,2.75
2023-02-17T07:33:37.486Z,5.43
2023-02-17T07:35:46.401Z,0.85
2023-02-17T07:37:51.676Z,6.82
2023-02-17T07:39:53.173Z,3.67
2023-02-17T07:41:54.676Z,1.25
2023-02-17T07:43:59.393Z,3.70
2023-02-17T07:46:00.870Z,1.60
2023-02-17T07:48:02.299Z,3.00
2023-02-17T07:50:22.377Z,1.50
2023-02-17T07:52:26.460Z,5.70
2023-02-17T07:54:30.854Z,5.43
2023-02-17T07:56:33.802Z,4.53
2023-02-17T07:58:39.013Z,5.47
2023-02-17T08:00:42.324Z,3.70
2023-02-17T08:02:48.882Z,3.05
2023-02-17T08:04:53.932Z,11.30
2023-02-17T08:07:01.479Z,15.40
2023-02-17T08:11:48.204Z,2.88
2023-02-17T08:13:51.271Z,3.83
2023-02-17T08:15:58.022Z,5.13
2023-02-17T08:18:06.008Z,4.20
2023-02-17T08:20:09.926Z,7.25
2023-02-17T08:22:15.387Z,11.02
2023-02-17T08:24:22.150Z,3.75
2023-02-17T08:26:28.954Z,6.47
2023-02-17T08:28:31.651Z,6.68
2023-02-17T08:30:36.929Z,2.92
2023-02-17T08:32:59.121Z,6.68
2023-02-17T08:35:03.184Z,7.95
2023-02-17T08:37:08.023Z,4.13
2023-02-17T08:39:15.643Z,5.82
2023-02-17T08:41:37.012Z,3.15
2023-02-17T08:43:38.593Z,6.30
2023-02-17T08:45:40.457Z,4.63
2023-02-17T08:47:44.824Z,3.70
2023-02-17T08:49:46.272Z,1.50
2023-02-17T08:51:51.083Z,3.20
2023-02-17T08:53:56.425Z,4.25
2023-02-17T08:56:00.523Z,1.05
2023-02-17T08:58:02.010Z,3.13
2023-02-17T09:02:11.346Z,8.20
2023-02-17T09:04:13.433Z,1.80
2023-02-17T09:06:15.847Z,1.95
2023-02-17T09:08:20.063Z,4.32
2023-02-17T09:10:21.526Z,4.63
2023-02-17T09:12:25.928Z,5.15
2023-02-17T09:14:30.422Z,3.63
2023-02-17T09:16:32.122Z,2.35
2023-02-17T09:18:33.600Z,3.70
2023-02-17T09:20:35.876Z,4.40
2023-02-17T09:22:40.223Z,4.03
2023-02-17T09:24:44.579Z,5.20
2023-02-17T09:26:46.296Z,3.08
2023-02-17T09:28:47.849Z,3.15
2023-02-17T09:30:49.425Z,1.88
2023-02-17T09:32:53.717Z,3.75
2023-02-17T09:34:58.869Z,5.13
2023-02-17T09:37:00.320Z,4.25
2023-02-17T09:39:04.883Z,1.95
2023-02-17T09:43:20.447Z,4.38
2023-02-17T09:45:27.287Z,5.43
2023-02-17T09:47:31.249Z,3.97
2023-02-17T09:50:07.949Z,3.28
2023-02-17T09:52:16.284Z,4.25
2023-02-17T09:54:31.312Z,3.40
2023-02-17T09:56:35.031Z,4.47
2023-02-17T09:58:46.664Z,2.40
2023-02-17T10:00:50.871Z,1.63
2023-02-17T10:03:01.222Z,4.22
2023-02-17T10:05:07.422Z,2.25
2023-02-17T10:07:08.886Z,5.60
2023-02-17T10:09:19.654Z,2.90
2023-02-17T10:11:48.061Z,7.63
2023-02-17T10:13:52.936Z,3.40
2023-02-17T10:15:55.048Z,2.60
2023-02-17T10:18:17.413Z,2.28
2023-02-17T10:20:37.396Z,3.72
2023-02-17T10:22:39.978Z,3.60
2023-02-17T10:24:41.956Z,0.77
2023-02-17T10:26:53.497Z,3.53
2023-02-17T10:28:57.907Z,4.45
2023-02-17T10:31:04.324Z,1.40
2023-02-17T10:33:11.701Z,7.25
2023-02-17T10:35:17.202Z,2.22
2023-02-17T10:37:27.179Z,3.13
2023-02-17T10:39:37.325Z,0.63
2023-02-17T10:41:40.288Z,4.30
2023-02-17T10:43:45.176Z,1.88
2023-02-17T10:45:51.168Z,1.00
2023-02-17T10:48:01.581Z,5.20
2023-02-17T10:50:08.389Z,3.25
2023-02-17T10:52:11.618Z,1.50
2023-02-17T10:54:29.678Z,1.10
2023-02-17T10:56:41.629Z,3.95
2023-02-17T10:58:45.844Z,2.85
2023-02-17T11:00:49.795Z,1.15
2023-02-17T11:02:54.047Z,0.95
2023-02-17T11:04:55.854Z,3.83
2023-02-17T11:07:02.060Z,1.23
2023-02-17T11:09:35.405Z,2.05
2023-02-17T11:11:53.968Z,1.10
2023-02-17T11:14:05.290Z,3.55
2023-02-17T11:16:22.054Z,0.60
2023-02-17T11:18:28.891Z,2.67
2023-02-17T11:20:51.440Z,1.63
2023-02-17T11:23:15.092Z,1.00
2023-02-17T11:25:22.376Z,0.83
2023-02-17T11:27:27.933Z,1.02
2023-02-17T11:29:30.470Z,2.00
2023-02-17T11:31:40.349Z,1.15
2023-02-17T11:33:51.080Z,2.50
2023-02-17T11:36:21.881Z,4.53
2023-02-17T11:38:26.232Z,2.40
2023-02-17T11:40:32.924Z,2.38
2023-02-17T11:42:38.310Z,2.58
2023-02-17T11:45:02.282Z,3.80
2023-02-17T11:47:27.590Z,3.03
2023-02-17T11:49:55.538Z,2.42
2023-02-17T11:51:59.731Z,2.05
2023-02-17T11:54:04.915Z,1.63
2023-02-17T11:56:19.464Z,2.58
2023-02-17T11:58:38.901Z,1.30
2023-02-17T12:01:05.094Z,2.15
2023-02-17T12:03:18.649Z,0.60
2023-02-17T12:05:20.405Z,2.33
2023-02-17T12:07:35.282Z,2.60
2023-02-17T12:09:48.846Z,1.25
2023-02-17T12:12:27.966Z,3.00
2023-02-17T12:14:39.874Z,3.70
2023-02-17T12:16:50.663Z,1.98
2023-02-17T12:19:04.435Z,8.48
2023-02-17T12:21:17.727Z,1.30
2023-02-17T12:23:25.921Z,2.63
2023-02-17T12:25:30.857Z,2.30
2023-02-17T12:27:51.041Z,3.05
2023-02-17T12:30:00.463Z,2.42
2023-02-17T12:32:31.541Z,4.00
2023-02-17T12:34:41.881Z,4.18
2023-02-17T12:36:43.609Z,1.05
2023-02-17T12:38:53.300Z,2.72
2023-02-17T12:40:57.761Z,2.67
2023-02-17T12:43:01.459Z,3.75
2023-02-17T12:45:05.016Z,1.38
2023-02-17T12:47:10.259Z,5.43
2023-02-17T12:49:14.166Z,2.72
2023-02-17T12:51:28.681Z,2.72
2023-02-17T12:53:33.080Z,4.22
2023-02-17T12:55:41.728Z,3.03
2023-02-17T12:57:55.832Z,3.60
2023-02-17T12:59:58.773Z,0.65
2023-02-17T13:02:01.796Z,3.35
2023-02-17T13:04:14.961Z,5.32
2023-02-17T13:06:19.178Z,3.28
2023-02-17T13:08:28.215Z,2.58
2023-02-17T13:10:31.926Z,4.50
2023-02-17T13:12:35.735Z,3.60
2023-02-17T13:14:41.483Z,3.40
2023-02-17T13:16:46.428Z,2.93
2023-02-17T13:18:51.984Z,2.78
2023-02-17T13:20:59.096Z,3.83
2023-02-17T13:23:04.984Z,3.40
2023-02-17T13:25:31.922Z,3.75
2023-02-17T13:27:34.930Z,5.57
2023-02-17T13:29:39.193Z,2.60
2023-02-17T13:31:47.865Z,0.90
2023-02-17T13:33:51.381Z,2.65
2023-02-17T13:35:52.990Z,1.27
2023-02-17T13:37:54.955Z,3.25
2023-02-17T13:40:09.162Z,2.13
2023-02-17T13:42:31.408Z,2.78
2023-02-17T13:44:34.197Z,3.25
2023-02-17T13:46:38.245Z,3.08
2023-02-17T13:48:59.737Z,2.38
2023-02-17T13:51:05.848Z,5.10
2023-02-17T13:53:24.047Z,6.00
2023-02-17T13:55:28.424Z,7.63
2023-02-17T13:57:33.582Z,4.63
2023-02-17T13:59:38.196Z,5.97
2023-02-17T14:01:41.503Z,2.10
2023-02-17T14:03:46.562Z,6.93
2023-02-17T14:05:48.767Z,2.75
2023-02-17T14:07:50.292Z,4.18
2023-02-17T14:12:19.373Z,6.95
2023-02-17T14:14:43.219Z,5.78
2023-02-17T14:17:08.945Z,3.17
2023-02-17T14:19:31.412Z,5.35
2023-02-17T14:21:35.246Z,5.68
2023-02-17T14:23:42.996Z,5.07
2023-02-17T14:25:52.846Z,4.75
2023-02-17T14:27:56.603Z,6.93
2023-02-17T14:29:59.339Z,4.80
2023-02-17T14:32:38.739Z,4.00
2023-02-17T14:34:41.202Z,6.80
2023-02-17T14:36:48.072Z,9.95
2023-02-17T14:40:56.696Z,3.72
2023-02-17T14:42:58.676Z,8.15
2023-02-17T14:45:03.469Z,5.47
2023-02-17T14:47:06.375Z,9.88
2023-02-17T14:49:10.455Z,6.80
2023-02-17T14:51:16.129Z,3.47
2023-02-17T14:53:24.630Z,5.50
2023-02-17T14:55:35.043Z,8.68
2023-02-17T14:57:39.187Z,9.60
2023-02-17T14:59:44.038Z,10.35
2023-02-17T15:01:48.463Z,8.57
2023-02-17T15:03:53.304Z,8.48
2023-02-17T15:05:55.144Z,5.95
2023-02-17T15:08:00.008Z,7.25
2023-02-17T15:10:14.258Z,10.05
2023-02-17T15:12:19.943Z,11.07
2023-02-17T15:14:23.930Z,11.50
2023-02-17T15:16:28.507Z,7.82
2023-02-17T15:18:32.926Z,12.40
2023-02-17T15:20:34.373Z,7.32
2023-02-17T15:22:41.677Z,6.93
2023-02-17T15:24:45.985Z,7.38
2023-02-17T15:26:50.446Z,9.80
2023-02-17T15:28:57.086Z,7.68
2023-02-17T15:31:01.567Z,5.40
2023-02-17T15:33:10.302Z,6.40
2023-02-17T15:35:14.261Z,3.90
2023-02-17T15:37:15.806Z,4.63
2023-02-17T15:39:18.879Z,4.95
2023-02-17T15:41:24.660Z,5.30
2023-02-17T15:45:40.705Z,4.63
2023-02-17T15:47:42.202Z,9.02
2023-02-17T15:49:43.884Z,5.90
2023-02-17T15:52:03.957Z,4.35
2023-02-17T15:54:08.055Z,3.95
2023-02-17T15:58:16.619Z,4.85
2023-02-17T16:00:36.893Z,4.50
2023-02-17T16:02:41.285Z,3.85
2023-02-17T16:05:01.740Z,3.60
2023-02-17T16:07:03.248Z,3.50
2023-02-17T16:11:12.026Z,5.65
2023-02-17T16:13:15.591Z,3.65
2023-02-17T16:15:21.265Z,0.75
2023-02-17T16:17:25.801Z,3.33
2023-02-17T16:19:31.532Z,4.57
2023-02-17T16:21:35.623Z,6.85
2023-02-17T16:26:00.837Z,3.45
2023-02-17T16:28:02.432Z,4.25
2023-02-17T16:30:35.955Z,3.15
2023-02-17T16:32:37.698Z,4.28
2023-02-17T16:34:42.806Z,3.28
2023-02-17T16:36:48.093Z,4.95
2023-02-17T16:38:50.648Z,2.95
2023-02-17T16:40:55.393Z,2.88
2023-02-17T16:42:57.413Z,3.67
2023-02-17T16:45:01.703Z,6.85
2023-02-17T16:47:03.324Z,8.40
2023-02-17T16:49:18.211Z,5.88
2023-02-17T16:51:22.274Z,5.07
2023-02-17T16:53:24.365Z,1.67
2023-02-17T16:55:29.756Z,2.03
2023-02-17T16:57:31.347Z,7.50
2023-02-17T16:59:38.468Z,7.60
2023-02-17T17:03:47.367Z,6.38
2023-02-17T17:05:49.914Z,4.22
2023-02-17T17:07:54.339Z,7.32
2023-02-17T17:10:14.763Z,1.65
2023-02-17T17:12:20.121Z,4.70
2023-02-17T17:14:25.053Z,4.50
2023-02-17T17:16:52.023Z,6.30
2023-02-17T17:18:54.409Z,4.80
2023-02-17T17:21:00.780Z,3.55
2023-02-17T17:23:09.838Z,7.38
2023-02-17T17:25:17.739Z,7.05
2023-02-17T17:27:19.844Z,4.75
2023-02-17T17:29:23.070Z,10.88
2023-02-17T17:31:30.244Z,8.15
2023-02-17T17:33:36.689Z,5.50
2023-02-17T17:35:39.726Z,4.90
2023-02-17T17:37:45.208Z,2.70
2023-02-17T17:39:51.315Z,7.50
2023-02-17T17:41:59.001Z,8.65
2023-02-17T17:44:02.459Z,2.65
2023-02-17T17:46:16.552Z,4.03
2023-02-17T17:48:22.472Z,5.15
2023-02-17T17:50:28.354Z,4.10
2023-02-17T17:52:37.236Z,3.35
2023-02-17T17:54:39.094Z,5.17
2023-02-17T17:56:42.907Z,2.78
2023-02-17T17:58:50.225Z,7.10
2023-02-17T18:00:53.013Z,3.70
2023-02-17T18:02:54.548Z,2.83
2023-02-17T18:04:58.724Z,3.08
2023-02-17T18:07:00.596Z,4.20
2023-02-17T18:09:05.976Z,1.65
2023-02-17T18:11:11.604Z,8.00
2023-02-17T18:13:16.499Z,3.95
2023-02-17T18:15:20.608Z,5.32
2023-02-17T18:17:23.656Z,3.38
2023-02-17T18:19:29.355Z,3.72
2023-02-17T18:21:35.723Z,5.38
2023-02-17T18:23:37.285Z,6.00
2023-02-17T18:25:57.549Z,5.25
2023-02-17T18:27:59.048Z,7.90
2023-02-17T18:30:00.697Z,8.82
2023-02-17T18:32:02.296Z,9.93
2023-02-17T18:34:04.048Z,8.20
2023-02-17T18:36:06.986Z,12.10
2023-02-17T18:38:12.007Z,5.05
2023-02-17T18:40:18.070Z,12.48
2023-02-17T18:42:22.117Z,12.48
2023-02-17T18:44:23.525Z,12.52
2023-02-17T18:46:28.576Z,12.27
2023-02-17T18:48:32.846Z,21.30
2023-02-17T18:50:34.974Z,11.57
2023-02-17T18:52:40.205Z,14.10
2023-02-17T18:54:45.077Z,14.77
2023-02-17T18:56:49.106Z,14.85
2023-02-17T18:58:51.574Z,19.42
2023-02-17T19:00:56.353Z,16.85
2023-02-17T19:03:00.691Z,13.60
2023-02-17T19:05:08.631Z,17.75
2023-02-17T19:07:12.824Z,12.00
2023-02-17T19:09:14.274Z,10.98
2023-02-17T19:13:38.568Z,18.52
2023-02-17T19:17:47.616Z,18.73
2023-02-17T19:19:51.815Z,18.55
2023-02-17T19:22:11.719Z,12.43
2023-02-17T19:26:18.979Z,14.60
2023-02-17T19:28:20.423Z,18.70
2023-02-17T19:32:46.562Z,12.32
2023-02-17T19:34:57.854Z,11.82
2023-02-17T19:37:21.245Z,21.73
2023-02-17T19:41:31.031Z,16.70
2023-02-17T19:43:38.658Z,13.40
2023-02-17T19:45:43.976Z,15.13
2023-02-17T19:47:48.865Z,9.43
2023-02-17T19:49:53.402Z,11.63
2023-02-17T19:51:58.589Z,13.82
2023-02-17T19:54:01.277Z,12.27
2023-02-17T19:56:09.184Z,15.45
2023-02-17T19:58:12.893Z,12.55
2023-02-17T20:02:21.851Z,16.42
2023-02-17T20:04:26.696Z,19.60
2023-02-17T20:06:33.066Z,16.08
2023-02-17T20:08:34.602Z,18.05
2023-02-17T20:10:38.979Z,21.30
2023-02-17T20:12:43.096Z,18.23
2023-02-17T20:14:47.695Z,11.30
2023-02-17T20:16:49.423Z,17.27
2023-02-17T20:18:51.138Z,17.73
2023-02-17T20:20:55.638Z,16.70
2023-02-17T20:22:57.135Z,12.90
2023-02-17T20:25:00.504Z,13.52
2023-02-17T20:27:22.572Z,16.58
2023-02-17T20:29:28.151Z,16.92
2023-02-17T20:31:36.855Z,12.70
2023-02-17T20:33:43.282Z,10.38
2023-02-17T20:37:53.477Z,19.27
2023-02-17T20:39:57.418Z,16.13
2023-02-17T20:42:01.622Z,19.20
2023-02-17T20:46:12.032Z,14.13
2023-02-17T20:48:17.897Z,17.77
2023-02-17T20:50:24.492Z,16.88
2023-02-17T20:52:26.432Z,12.88
2023-02-17T20:54:32.215Z,15.57
2023-02-17T20:56:37.205Z,21.03
2023-02-17T20:58:43.864Z,14.70
2023-02-17T21:00:48.806Z,16.30
2023-02-17T21:02:52.344Z,18.05
2023-02-17T21:04:54.279Z,17.90
2023-02-17T21:07:01.022Z,14.63
2023-02-17T21:09:08.154Z,14.98
2023-02-17T21:11:12.556Z,21.77
2023-02-17T21:15:18.204Z,18.60
2023-02-17T21:17:19.733Z,12.85
2023-02-17T21:19:21.293Z,18.85
2023-02-17T21:21:26.615Z,15.43
2023-02-17T21:23:34.543Z,17.13
2023-02-17T21:25:38.952Z,23.42
2023-02-17T21:27:43.323Z,13.15
2023-02-17T21:29:47.662Z,18.95
2023-02-17T21:31:49.523Z,20.40
2023-02-17T21:33:54.088Z,13.57
2023-02-17T21:35:56.028Z,18.98
2023-02-17T21:38:16.864Z,16.80
2023-02-17T21:40:18.349Z,20.80
2023-02-17T21:42:44.637Z,17.45
2023-02-17T21:44:53.082Z,19.85
2023-02-17T21:47:13.130Z,18.20
2023-02-17T21:49:17.610Z,19.10
2023-02-17T21:51:25.372Z,14.35
2023-02-17T21:53:27.018Z,21.92
2023-02-17T21:55:31.902Z,21.90
2023-02-17T21:57:33.393Z,17.10
2023-02-17T21:59:35.049Z,21.13
2023-02-17T22:01:36.937Z,19.67
2023-02-17T22:03:41.418Z,16.27
2023-02-17T22:05:45.961Z,13.52
2023-02-17T22:07:48.238Z,13.85
2023-02-17T22:09:49.801Z,12.07
2023-02-17T22:11:57.386Z,10.15
2023-02-17T22:14:03.516Z,7.93
2023-02-17T22:16:08.595Z,11.63
2023-02-17T22:18:10.306Z,8.77
2023-02-17T22:20:12.159Z,9.75
2023-02-17T22:22:16.143Z,6.30
2023-02-17T22:24:17.881Z,5.28
2023-02-17T22:26:21.630Z,6.85
2023-02-17T22:28:41.972Z,6.95
2023-02-17T22:30:49.741Z,4.97
2023-02-17T22:32:51.210Z,7.28
2023-02-17T22:34:52.653Z,9.90
2023-02-17T22:36:54.390Z,9.30
2023-02-17T22:38:55.943Z,5.75
2023-02-17T22:41:00.481Z,3.30
2023-02-17T22:43:10.042Z,3.63
2023-02-17T22:45:37.861Z,4.53
2023-02-17T22:47:44.128Z,2.28
2023-02-17T22:50:09.565Z,3.13
2023-02-17T22:52:15.797Z,2.35
2023-02-17T22:54:21.376Z,3.05
2023-02-17T22:56:29.407Z,1.50
2023-02-17T22:58:35.294Z,2.92
2023-02-17T23:01:09.898Z,3.03
2023-02-17T23:03:37.865Z,1.77
2023-02-17T23:05:44.678Z,0.77
2023-02-17T23:07:53.947Z,2.70
2023-02-17T23:10:16.086Z,2.83
2023-02-17T23:12:29.074Z,1.92
2023-02-17T23:14:36.653Z,5.95
2023-02-17T23:16:46.129Z,5.20
2023-02-17T23:18:49.736Z,4.03
2023-02-17T23:20:56.388Z,2.63
2023-02-17T23:23:03.031Z,8.10
2023-02-17T23:25:06.773Z,2.67
2023-02-17T23:27:11.393Z,4.38
2023-02-17T23:29:33.997Z,2.92
2023-02-17T23:33:37.280Z,6.55
2023-02-17T23:35:44.756Z,3.85
2023-02-17T23:37:46.293Z,3.08
2023-02-17T23:39:47.798Z,5.47
2023-02-17T23:41:52.321Z,2.90
2023-02-17T23:44:13.028Z,4.03
2023-02-17T23:46:17.434Z,6.13
2023-02-17T23:48:18.844Z,6.05
2023-02-17T23:52:27.314Z,2.27
2023-02-17T23:54:31.484Z,3.28
2023-02-17T23:56:51.588Z,8.60
2023-02-17T23:59:11.699Z,11.70
